Time;durP1;ratioP1;P1;durP2;ratioP2;P2;SDS_P1;SDS_P2;PMS_P1;PMS_P2;Temp;Humidity;BMP_temperature;BMP_pressure;BME280_temperature;BME280_humidity;BME280_pressure;Samples;Min_cycle;Max_cycle;Signal;HPM_P1;HPM_P2
2022/08/20 00:01:39;;;;;;;18.33;12.13;;;;;;;;;;5031832;28;20411;-61
2022/08/20 00:04:05;;;;;;;18.27;12.45;;;;;;;;;;5031906;28;20510;-60
2022/08/20 00:06:32;;;;;;;16.63;11.63;;;;;;;;;;5032310;28;20260;-60
2022/08/20 00:08:59;;;;;;;12.38;10.73;;;;;;;;;;5031724;28;20109;-60
2022/08/20 00:11:26;;;;;;;13.60;11.73;;;;;;;;;;5031105;28;20094;-61
2022/08/20 00:13:54;;;;;;;16.35;12.50;;;;;;;;;;5031764;28;20029;-59
2022/08/20 00:16:21;;;;;;;14.70;11.57;;;;;;;;;;5032124;28;20021;-60
2022/08/20 00:18:48;;;;;;;15.68;13.55;;;;;;;;;;5031938;28;20044;-61
2022/08/20 00:21:16;;;;;;;14.52;12.23;;;;;;;;;;5031409;28;20025;-60
2022/08/20 00:23:43;;;;;;;14.35;11.90;;;;;;;;;;5031632;28;20488;-59
2022/08/20 00:26:10;;;;;;;21.30;12.90;;;;;;;;;;5017264;28;20140;-61
2022/08/20 00:28:37;;;;;;;18.27;12.45;;;;;;;;;;5031650;28;20036;-59
2022/08/20 00:31:04;;;;;;;15.93;12.82;;;;;;;;;;5031559;28;20505;-57
2022/08/20 00:33:30;;;;;;;22.05;13.93;;;;;;;;;;5031668;28;20035;-60
2022/08/20 00:35:56;;;;;;;14.47;12.17;;;;;;;;;;5031270;28;20037;-59
2022/08/20 00:38:23;;;;;;;13.73;12.43;;;;;;;;;;5031683;28;20088;-59
2022/08/20 00:40:49;;;;;;;;;;;;;;;;;;5031594;28;20427;-61
2022/08/20 00:43:27;;;;;;;15.13;12.52;;;;;;;;;;5030956;28;19909;-60
2022/08/20 00:45:55;;;;;;;19.55;12.85;;;;;;;;;;5031522;28;20521;-60
2022/08/20 00:48:22;;;;;;;15.98;14.27;;;;;;;;;;5031305;28;20021;-60
2022/08/20 00:50:48;;;;;;;16.90;12.32;;;;;;;;;;5031366;28;20080;-60
2022/08/20 00:53:14;;;;;;;13.68;12.27;;;;;;;;;;5030208;28;20026;-58
2022/08/20 00:55:41;;;;;;;19.40;12.88;;;;;;;;;;5031631;28;20433;-56
2022/08/20 00:58:08;;;;;;;17.33;14.07;;;;;;;;;;5030329;28;20032;-61
2022/08/20 01:00:36;;;;;;;21.95;14.30;;;;;;;;;;5031397;28;20492;-61
2022/08/20 01:03:03;;;;;;;18.23;14.13;;;;;;;;;;5031533;28;20404;-61
2022/08/20 01:05:29;;;;;;;20.48;14.85;;;;;;;;;;5031292;28;20026;-58
2022/08/20 01:07:56;;;;;;;19.35;14.20;;;;;;;;;;5031391;28;20048;-60
2022/08/20 01:10:26;;;;;;;18.60;13.68;;;;;;;;;;5031196;28;20503;-60
2022/08/20 01:12:56;;;;;;;17.00;13.55;;;;;;;;;;5031477;28;20027;-59
2022/08/20 01:15:23;;;;;;;16.35;13.52;;;;;;;;;;5031338;28;20045;-60
2022/08/20 01:17:53;;;;;;;17.52;14.57;;;;;;;;;;5031402;28;20029;-61
2022/08/20 01:20:22;;;;;;;15.23;13.23;;;;;;;;;;5031066;28;20036;-60
2022/08/20 01:25:42;;;;;;;18.00;14.85;;;;;;;;;;5035741;28;20103;-61
2022/08/20 01:28:09;;;;;;;17.85;15.50;;;;;;;;;;5035323;28;20508;-61
2022/08/20 01:30:35;;;;;;;17.17;14.95;;;;;;;;;;5035056;28;20025;-59
2022/08/20 01:33:01;;;;;;;15.10;13.50;;;;;;;;;;5035278;28;20400;-59
2022/08/20 01:35:28;;;;;;;19.93;14.93;;;;;;;;;;5035010;28;20500;-59
2022/08/20 01:37:54;;;;;;;16.05;14.35;;;;;;;;;;5035409;28;20252;-59
2022/08/20 01:40:40;;;;;;;16.42;14.65;;;;;;;;;;5035013;28;20117;-57
2022/08/20 01:43:08;;;;;;;15.30;13.88;;;;;;;;;;4994464;28;20042;-59
2022/08/20 01:45:35;;;;;;;21.00;15.32;;;;;;;;;;5035009;28;20025;-59
2022/08/20 01:48:01;;;;;;;18.10;16.13;;;;;;;;;;5034876;28;20029;-61
2022/08/20 01:50:28;;;;;;;22.17;14.40;;;;;;;;;;5034466;28;20506;-59
2022/08/20 01:53:03;;;;;;;25.13;15.70;;;;;;;;;;5034215;28;20025;-61
2022/08/20 01:55:29;;;;;;;19.58;15.52;;;;;;;;;;5034376;28;20034;-61
2022/08/20 01:57:55;;;;;;;21.02;15.57;;;;;;;;;;5034430;28;20033;-58
2022/08/20 02:00:22;;;;;;;17.37;15.60;;;;;;;;;;5034352;28;20024;-61
2022/08/20 02:02:48;;;;;;;22.63;16.63;;;;;;;;;;5034456;28;20263;-59
2022/08/20 02:05:14;;;;;;;21.67;17.60;;;22.90;93.90;;;;;;5034300;28;20502;-60
2022/08/20 02:07:39;;;;;;;21.27;16.15;;;22.00;82.30;;;;;;5034571;28;20022;-61
2022/08/20 02:10:08;;;;;;;24.67;18.27;;;21.90;83.10;;;;;;5033098;28;20099;-61
2022/08/20 02:12:34;;;;;;;26.50;17.65;;;21.90;83.10;;;;;;5034352;28;20030;-60
2022/08/20 02:15:00;;;;;;;23.35;17.40;;;21.90;83.10;;;;;;5034323;28;20037;-59
2022/08/20 02:17:26;;;;;;;20.17;17.63;;;21.90;82.90;;;;;;5034409;28;20018;-60
2022/08/20 02:20:03;;;;;;;20.13;16.25;;;21.90;82.70;;;;;;5034380;28;20017;-59
2022/08/20 02:22:36;;;;;;;23.02;16.83;;;21.90;82.30;;;;;;5034252;28;20036;-59
2022/08/20 02:25:07;;;;;;;18.83;16.63;;;21.90;82.40;;;;;;5034249;28;20036;-58
2022/08/20 02:27:33;;;;;;;20.88;17.35;;;21.90;82.70;;;;;;5034256;28;20083;-59
2022/08/20 02:29:59;;;;;;;20.88;17.02;;;21.80;82.60;;;;;;5032769;28;20029;-60
2022/08/20 02:32:25;;;;;;;22.70;18.30;;;21.80;82.40;;;;;;5033666;28;20036;-59
2022/08/20 02:34:51;;;;;;;21.48;16.65;;;21.80;82.80;;;;;;5033565;28;20034;-60
2022/08/20 02:37:17;;;;;;;24.60;19.83;;;21.70;82.60;;;;;;5033769;28;20014;-60
2022/08/20 02:39:44;;;;;;;24.40;19.08;;;21.70;82.60;;;;;;5032777;28;20021;-61
2022/08/20 02:42:11;;;;;;;23.63;18.48;;;21.70;82.70;;;;;;5033633;28;20022;-60
2022/08/20 02:44:38;;;;;;;21.35;18.52;;;21.70;82.60;;;;;;5033924;28;20032;-59
2022/08/20 02:47:08;;;;;;;25.23;20.50;;;21.80;82.40;;;;;;5032531;28;20053;-59
2022/08/20 02:49:34;;;;;;;22.85;20.40;;;21.70;82.80;;;;;;5034183;28;20534;-59
2022/08/20 02:52:00;;;;;;;24.65;18.75;;;21.80;83.00;;;;;;5033316;28;20029;-59
2022/08/20 02:54:25;;;;;;;25.85;20.25;;;21.70;82.60;;;;;;5033369;28;20033;-59
2022/08/20 02:56:51;;;;;;;19.48;15.25;;;21.70;82.70;;;;;;5033481;28;20026;-59
2022/08/20 02:59:17;;;;;;;21.95;19.50;;;21.50;83.20;;;;;;5033395;28;20096;-60
2022/08/20 03:01:43;;;;;;;20.30;18.23;;;21.40;83.60;;;;;;5032926;28;20017;-60
2022/08/20 03:04:09;;;;;;;21.00;17.45;;;21.30;95.30;;;;;;5033291;28;20510;-58
2022/08/20 03:06:35;;;;;;;22.83;18.30;;;21.30;83.10;;;;;;5032864;28;20024;-57
2022/08/20 03:09:04;;;;;;;23.17;18.27;;;21.20;83.10;;;;;;5031092;28;20471;-59
2022/08/20 03:11:31;;;;;;;21.15;16.77;;;21.10;83.40;;;;;;5028212;28;20022;-59
2022/08/20 03:13:57;;;;;;;27.35;17.73;;;21.00;95.40;;;;;;5032473;28;20499;-59
2022/08/20 03:16:22;;;;;;;26.25;18.27;;;21.00;83.80;;;;;;5028452;28;20034;-57
2022/08/20 03:18:48;;;;;;;27.60;19.17;;;21.00;84.30;;;;;;5013604;28;20041;-60
2022/08/20 03:21:14;;;;;;;24.87;18.37;;;21.00;84.20;;;;;;5033339;28;20025;-58
2022/08/20 03:23:40;;;;;;;25.17;18.80;;;20.90;84.30;;;;;;5029840;28;20033;-60
2022/08/20 03:26:08;;;;;;;28.05;18.08;;;21.00;84.40;;;;;;5032023;28;20040;-58
2022/08/20 03:28:35;;;;;;;32.15;18.60;;;20.90;84.80;;;;;;5032511;28;20036;-58
2022/08/20 03:31:01;;;;;;;21.98;18.27;;;20.90;85.00;;;;;;5032299;28;20052;-59
2022/08/20 03:33:28;;;;;;;23.70;17.40;;;21.00;84.80;;;;;;5032946;28;20135;-59
2022/08/20 03:35:54;;;;;;;;;;;21.00;85.40;;;;;;5032530;28;20037;-59
2022/08/20 03:38:22;;;;;;;21.73;15.95;;;20.90;86.20;;;;;;5032292;28;20280;-58
2022/08/20 03:40:48;;;;;;;21.33;15.23;;;20.90;85.40;;;;;;5032020;28;20033;-56
2022/08/20 03:43:15;;;;;;;20.35;18.02;;;21.00;84.90;;;;;;5029821;28;20041;-61
2022/08/20 03:45:43;;;;;;;20.92;17.58;;;21.10;84.50;;;;;;5032160;28;20401;-60
2022/08/20 03:48:13;;;;;;;25.00;17.40;;;21.10;84.30;;;;;;5032483;28;20033;-61
2022/08/20 03:50:40;;;;;;;21.58;17.88;;;21.10;84.20;;;;;;5032010;28;20025;-59
2022/08/20 03:53:08;;;;;;;22.08;17.35;;;21.00;84.60;;;;;;5032610;28;20017;-58
2022/08/20 03:55:34;;;;;;;19.73;16.90;;;21.00;84.90;;;;;;5031479;28;20029;-58
2022/08/20 03:58:02;;;;;;;21.27;16.53;;;21.00;84.60;;;;;;5032202;28;20116;-59
2022/08/20 04:00:41;;;;;;;27.02;18.77;;;21.10;84.50;;;;;;5029096;28;20153;-59
2022/08/20 04:03:09;;;;;;;20.65;15.95;;;20.80;85.60;;;;;;5032367;28;20403;-60
2022/08/20 04:05:39;;;;;;;20.70;16.23;;;20.80;85.50;;;;;;5032429;28;20113;-59
2022/08/20 04:08:08;;;;;;;24.98;17.20;;;20.80;85.10;;;;;;5032047;28;20049;-60
2022/08/20 04:10:34;;;;;;;16.75;15.13;;;20.90;84.60;;;;;;5032138;28;20403;-59
2022/08/20 04:13:05;;;;;;;25.50;16.08;;;21.00;84.10;;;;;;5032100;28;20029;-57
2022/08/20 04:15:33;;;;;;;21.05;17.48;;;21.00;84.10;;;;;;5029949;28;20077;-60
2022/08/20 04:17:59;;;;;;;24.67;18.42;;;21.00;83.80;;;;;;5032260;28;20026;-59
2022/08/20 04:20:25;;;;;;;21.33;16.60;;;21.00;83.70;;;;;;5032109;28;20388;-61
2022/08/20 04:22:55;;;;;;;25.83;18.90;;;20.90;84.10;;;;;;5032335;28;20462;-57
2022/08/20 04:25:22;;;;;;;28.75;19.20;;;20.80;84.40;;;;;;5032059;28;20456;-60
2022/08/20 04:27:51;;;;;;;24.83;18.92;;;20.80;85.10;;;;;;5032103;28;20018;-60
2022/08/20 04:30:20;;;;;;;19.02;17.00;;;20.70;85.40;;;;;;5031876;28;20021;-57
2022/08/20 04:32:47;;;;;;;21.50;16.80;;;20.40;86.50;;;;;;5032012;28;20395;-60
2022/08/20 04:35:16;;;;;;;;;;;20.50;86.30;;;;;;5047839;22;20064;-56
2022/08/20 04:37:46;;;;;;;20.17;15.90;;;20.50;86.40;;;;;;5031683;28;19905;-56
2022/08/20 04:43:06;;;;;;;23.15;17.45;;;20.40;86.90;;;;;;5032109;28;20091;-58
2022/08/20 04:45:32;;;;;;;21.27;17.65;;;20.40;86.50;;;;;;5031741;28;20402;-58
2022/08/20 04:48:05;;;;;;;21.52;17.02;;;20.50;86.40;;;;;;5031540;28;20030;-56
2022/08/20 04:50:36;;;;;;;18.92;16.65;;;20.60;85.70;;;;;;5031600;28;20112;-57
2022/08/20 04:53:08;;;;;;;21.17;18.88;;;20.70;85.10;;;;;;5031868;28;20029;-58
2022/08/20 04:55:37;;;;;;;19.00;17.00;;;20.70;85.00;;;;;;5031379;28;20162;-57
2022/08/20 04:58:08;;;;;;;22.13;18.23;;;20.70;85.00;;;;;;5031796;28;20014;-56
2022/08/20 05:00:35;;;;;;;19.60;17.48;;;20.70;85.40;;;;;;5031484;28;20025;-59
2022/08/20 05:03:01;;;;;;;21.55;18.05;;;20.70;85.40;;;;;;5031643;28;20379;-56
2022/08/20 05:05:27;;;;;;;18.52;16.45;;;20.70;85.40;;;;;;5031574;28;20028;-63
2022/08/20 05:07:54;;;;;;;19.90;15.80;;;20.80;85.40;;;;;;5030575;28;20017;-60
2022/08/20 05:10:22;;;;;;;;;;;20.80;85.00;;;;;;5031711;28;20394;-58
2022/08/20 05:12:48;;;;;;;;;;;20.70;85.40;;;;;;5032013;28;19905;-58
2022/08/20 05:15:14;;;;;;;20.77;16.08;;;20.60;86.20;;;;;;5031356;28;20003;-61
2022/08/20 05:17:41;;;;;;;21.58;16.60;;;20.50;86.20;;;;;;5026422;28;20097;-62
2022/08/20 05:20:09;;;;;;;18.63;16.15;;;20.50;87.10;;;;;;5012101;28;20077;-61
2022/08/20 05:22:35;;;;;;;19.10;17.05;;;20.50;87.00;;;;;;5014967;28;20025;-61
2022/08/20 05:25:01;;;;;;;18.73;16.17;;;20.60;87.10;;;;;;5029411;28;20068;-49
2022/08/20 05:27:28;;;;;;;17.20;15.52;;;20.60;87.30;;;;;;5017070;28;20510;-57
2022/08/20 05:30:08;;;;;;;20.88;16.90;;;20.60;87.20;;;;;;5031099;28;20035;-55
2022/08/20 05:32:35;;;;;;;21.20;18.13;;;20.70;87.50;;;;;;5031393;28;20021;-57
2022/08/20 05:35:02;;;;;;;21.58;19.38;;;20.70;88.40;;;;;;5022040;28;20404;-56
2022/08/20 05:37:29;;;;;;;22.90;20.50;;;20.80;88.00;;;;;;5025220;28;20495;-57
2022/08/20 05:39:54;;;;;;;22.58;20.17;;;20.90;87.80;;;;;;5030791;28;20025;-57
2022/08/20 05:42:20;;;;;;;24.85;22.02;;;20.90;88.40;;;;;;5030866;28;20029;-53
2022/08/20 05:44:46;;;;;;;25.13;22.70;;;21.00;89.40;;;;;;5030651;28;20025;-52
2022/08/20 05:47:12;;;;;;;27.35;23.30;;;21.00;88.90;;;;;;5030943;28;20395;-56
2022/08/20 05:49:38;;;;;;;35.30;24.30;;;21.00;89.10;;;;;;5030638;28;20026;-54
2022/08/20 05:52:05;;;;;;;27.45;24.63;;;21.10;89.00;;;;;;5030790;28;20248;-53
2022/08/20 05:54:31;;;;;;;27.30;24.27;;;21.20;96.70;;;;;;5030405;28;20071;-56
2022/08/20 05:56:57;;;;;;;30.52;25.63;;;21.20;89.10;;;;;;5030578;28;20335;-57
2022/08/20 05:59:24;;;;;;;29.08;25.88;;;21.30;89.20;;;;;;5029098;28;20120;-54
2022/08/20 06:01:50;;;;;;;29.25;25.77;;;21.40;89.10;;;;;;5030606;28;20033;-58
2022/08/20 06:04:30;;;;;;;30.02;26.90;;;21.40;89.20;;;;;;5030511;28;20048;-57
2022/08/20 06:07:01;;;;;;;29.08;25.80;;;21.40;90.00;;;;;;5030278;28;20027;-57
2022/08/20 06:09:28;;;;;;;30.48;27.23;;;21.50;90.10;;;;;;5033132;28;20027;-58
2022/08/20 06:11:54;;;;;;;28.77;24.67;;;21.40;90.00;;;;;;5034199;28;20071;-56
2022/08/20 06:14:20;;;;;;;30.25;25.92;;;21.40;90.10;;;;;;5034323;28;20034;-57
2022/08/20 06:16:46;;;;;;;35.13;26.52;;;21.50;89.40;;;;;;5034466;28;20563;-56
2022/08/20 06:19:12;;;;;;;25.17;22.53;;;21.60;89.80;;;;;;5017126;28;20029;-53
2022/08/20 06:21:39;;;;;;;28.80;25.00;;;21.60;88.20;;;;;;5033828;28;20518;-53
2022/08/20 06:24:05;;;;;;;28.08;25.05;;;21.60;88.80;;;;;;5033717;28;20032;-52
2022/08/20 06:26:33;;;;;;;26.40;23.55;;;21.70;89.00;;;;;;5033892;28;20060;-54
2022/08/20 06:29:04;;;;;;;24.90;22.33;;;21.80;88.20;;;;;;5033306;28;20041;-53
2022/08/20 06:31:30;;;;;;;25.52;21.80;;;21.90;88.00;;;;;;5033293;28;20060;-54
2022/08/20 06:33:55;;;;;;;24.67;21.80;;;22.00;87.80;;;;;;5033891;28;20053;-55
2022/08/20 06:36:21;;;;;;;24.17;21.63;;;22.20;87.50;;;;;;5034134;28;20033;-58
2022/08/20 06:38:47;;;;;;;24.65;19.70;;;22.30;87.00;;;;;;5033978;28;20026;-54
2022/08/20 06:41:13;;;;;;;23.87;21.30;;;22.40;85.40;;;;;;5033526;28;20480;-51
2022/08/20 06:43:39;;;;;;;27.90;22.27;;;22.50;85.00;;;;;;5033409;28;20040;-50
2022/08/20 06:46:05;;;;;;;23.67;20.63;;;22.50;85.40;;;;;;5034160;28;20422;-50
2022/08/20 06:48:31;;;;;;;26.13;21.17;;;22.50;84.70;;;;;;5034072;28;20021;-52
2022/08/20 06:50:57;;;;;;;25.87;20.87;;;22.60;84.80;;;;;;5033777;28;20035;-53
2022/08/20 06:53:22;;;;;;;23.15;20.52;;;22.70;83.50;;;;;;5033932;28;20022;-49
2022/08/20 06:55:52;;;;;;;25.53;22.27;;;22.70;83.90;;;;;;5033836;28;20129;-51
2022/08/20 06:58:20;;;;;;;29.85;23.67;;;22.80;83.80;;;;;;5033765;28;20391;-53
2022/08/20 07:00:47;;;;;;;27.85;23.35;;;22.80;83.40;;;;;;5033716;28;20061;-50
2022/08/20 07:03:13;;;;;;;;;;;22.90;83.60;;;;;;5034155;28;20065;-52
2022/08/20 07:05:41;;;;;;;29.42;24.30;;;22.90;83.30;;;;;;5033615;28;20399;-53
2022/08/20 07:08:20;;;;;;;28.67;25.30;;;23.00;83.60;;;;;;5033603;28;20036;-49
2022/08/20 07:10:47;;;;;;;29.55;26.35;;;23.10;83.10;;;;;;5032862;28;20030;-52
2022/08/20 07:13:15;;;;;;;29.63;26.58;;;23.20;82.80;;;;;;5032827;28;20022;-53
2022/08/20 07:15:42;;;;;;;32.67;27.50;;;23.30;83.20;;;;;;5032151;28;20029;-53
2022/08/20 07:18:09;;;;;;;27.67;24.73;;;23.40;82.90;;;;;;5033443;28;20056;-51
2022/08/20 07:20:37;;;;;;;28.38;25.13;;;23.50;82.40;;;;;;5032996;28;20057;-53
2022/08/20 07:23:02;;;;;;;31.98;25.50;;;23.60;82.20;;;;;;5033399;28;20525;-49
2022/08/20 07:25:32;;;;;;;34.53;27.27;;;23.60;81.30;;;;;;5033107;28;20025;-53
2022/08/20 07:28:03;;;;;;;27.08;24.13;;;23.70;81.50;;;;;;5033313;28;20026;-50
2022/08/20 07:33:14;;;;;;;25.10;20.23;;;23.70;80.90;;;;;;5032934;28;20043;-54
2022/08/20 07:35:40;;;;;;;23.93;21.53;;;23.80;79.20;;;;;;5032887;28;20034;-54
2022/08/20 07:38:12;;;;;;;26.30;20.02;;;23.80;80.00;;;;;;5032995;28;20028;-55
2022/08/20 07:40:38;;;;;;;21.00;18.77;;;23.70;79.30;;;;;;5032866;28;20391;-53
2022/08/20 07:43:03;;;;;;;20.47;17.40;;;23.80;78.60;;;;;;5033059;28;20024;-54
2022/08/20 07:45:30;;;;;;;20.57;15.07;;;23.90;78.20;;;;;;5032707;28;20033;-56
2022/08/20 07:48:06;;;;;;;15.70;14.20;;;24.00;78.00;;;;;;5032632;28;20024;-56
2022/08/20 07:50:31;;;;;;;17.38;15.52;;;24.30;74.00;;;;;;5031450;28;20215;-54
2022/08/20 07:52:59;;;;;;;17.33;12.87;;;24.30;74.80;;;;;;5032757;28;20483;-57
2022/08/20 07:55:26;;;;;;;17.02;14.70;;;24.30;74.90;;;;;;5032483;28;20025;-55
2022/08/20 07:57:51;;;;;;;17.15;14.63;;;24.50;75.20;;;;;;5032571;28;20476;-55
2022/08/20 08:00:21;;;;;;;19.10;14.73;;;24.50;74.40;;;;;;5032285;28;20051;-56
2022/08/20 08:02:46;;;;;;;18.02;16.08;;;24.60;74.40;;;;;;5032709;28;20498;-56
2022/08/20 08:05:13;;;;;;;18.80;16.90;;;24.60;74.70;;;;;;5032380;28;20053;-53
2022/08/20 08:07:39;;;;;;;17.60;15.68;;;24.70;74.50;;;;;;5032559;28;20025;-51
2022/08/20 08:10:08;;;;;;;18.90;15.30;;;24.80;73.70;;;;;;5032241;28;20472;-53
2022/08/20 08:12:37;;;;;;;18.95;15.25;;;24.80;73.70;;;;;;5031674;28;20032;-53
2022/08/20 08:15:14;;;;;;;16.77;15.05;;;24.80;73.50;;;;;;5032261;28;20068;-55
2022/08/20 08:17:42;;;;;;;21.52;15.13;;;24.90;73.60;;;;;;5032284;28;20376;-58
2022/08/20 08:20:11;;;;;;;16.80;14.80;;;24.90;72.20;;;;;;5032167;28;20043;-59
2022/08/20 08:22:40;;;;;;;24.05;18.27;;;24.90;73.40;;;;;;5032111;28;20128;-57
2022/08/20 08:25:06;;;;;;;20.20;17.17;;;24.90;73.90;;;;;;5030254;28;20106;-58
2022/08/20 08:27:33;;;;;;;18.35;16.20;;;25.00;73.70;;;;;;5030256;28;20441;-56
2022/08/20 08:29:59;;;;;;;17.75;15.93;;;25.10;73.50;;;;;;5031929;28;20104;-56
2022/08/20 08:32:27;;;;;;;18.90;16.58;;;25.20;73.40;;;;;;5031369;28;20121;-55
2022/08/20 08:34:53;;;;;;;17.80;15.48;;;25.30;73.00;;;;;;5031817;28;20037;-56
2022/08/20 08:37:18;;;;;;;17.90;16.03;;;25.30;73.20;;;;;;5031967;28;20621;-56
2022/08/20 08:39:44;;;;;;;18.77;16.77;;;25.40;72.50;;;;;;5031641;28;20029;-55
2022/08/20 08:42:22;;;;;;;18.40;14.37;;;25.40;72.90;;;;;;5031999;28;20033;-58
2022/08/20 08:44:48;;;;;;;18.42;15.77;;;25.40;71.00;;;;;;5031379;28;20037;-55
2022/08/20 08:47:33;;;;;;;16.92;14.02;;;25.40;70.40;;;;;;5031797;28;20021;-57
2022/08/20 08:50:04;;;;;;;15.77;11.75;;;25.40;71.20;;;;;;5031613;28;20029;-54
2022/08/20 08:52:34;;;;;;;12.57;11.02;;;25.50;71.20;;;;;;5031821;28;20037;-55
2022/08/20 08:55:04;;;;;;;14.32;12.48;;;25.60;71.30;;;;;;5031534;28;20053;-54
2022/08/20 08:57:30;;;;;;;13.25;11.25;;;25.70;70.70;;;;;;5031546;28;20052;-54
2022/08/20 09:00:09;;;;;;;12.60;10.13;;;25.70;69.10;;;;;;5031530;28;20021;-58
2022/08/20 09:02:37;;;;;;;14.57;9.77;;;25.80;70.00;;;;;;5031558;28;20389;-56
2022/08/20 09:05:13;;;;;;;14.40;10.00;;;25.80;69.70;;;;;;5031420;28;20024;-57
2022/08/20 09:07:40;;;;;;;12.52;11.25;;;26.00;69.50;;;;;;5031481;28;20104;-56
2022/08/20 09:10:07;;;;;;;;;;;26.00;68.80;;;;;;5031830;28;20041;-57
2022/08/20 09:12:33;;;;;;;16.55;10.73;;;26.00;68.60;;;;;;5031435;28;19992;-55
2022/08/20 09:14:58;;;;;;;13.17;10.90;;;26.00;69.30;;;;;;5031330;28;20171;-55
2022/08/20 09:17:24;;;;;;;14.30;11.20;;;26.10;68.10;;;;;;5031426;28;20312;-56
2022/08/20 09:19:51;;;;;;;12.27;11.07;;;26.20;69.50;;;;;;5031238;28;20036;-55
2022/08/20 09:22:18;;;;;;;;;;;26.30;67.70;;;;;;5031737;28;20484;-55
2022/08/20 09:24:44;;;;;;;23.45;12.10;;;26.20;66.90;;;;;;5030160;28;20350;-56
2022/08/20 09:27:10;;;;;;;15.65;10.43;;;26.20;68.30;;;;;;5031341;28;20088;-56
2022/08/20 09:29:36;;;;;;;12.25;10.80;;;26.20;68.40;;;;;;5031131;28;20104;-54
2022/08/20 09:32:15;;;;;;;17.13;11.50;;;26.40;69.10;;;;;;5031216;28;20113;-55
2022/08/20 09:34:47;;;;;;;15.68;11.27;;;26.40;69.70;;;;;;5031017;28;20605;-56
2022/08/20 09:37:13;;;;;;;11.60;10.35;;;26.40;68.30;;;;;;5031218;28;20028;-56
2022/08/20 09:39:39;;;;;;;12.70;10.13;;;26.50;67.40;;;;;;5029685;28;20407;-57
2022/08/20 09:42:06;;;;;;;14.10;10.40;;;26.50;66.50;;;;;;5031883;28;20034;-57
2022/08/20 09:44:32;;;;;;;13.30;10.23;;;26.60;80.30;;;;;;5035036;28;20026;-53
2022/08/20 09:46:57;;;;;;;11.10;9.93;;;26.70;65.10;;;;;;5033755;28;20143;-58
2022/08/20 09:49:23;;;;;;;10.23;8.77;;;26.80;65.20;;;;;;5034854;28;20029;-55
2022/08/20 09:51:49;;;;;;;11.27;9.63;;;26.90;65.00;;;;;;5034892;28;20029;-56
2022/08/20 09:54:15;;;;;;;10.63;7.93;;;26.90;64.40;;;;;;5034942;28;20053;-56
2022/08/20 09:56:40;;;;;;;9.03;7.13;;;27.00;63.40;;;;;;5034830;28;20026;-56
2022/08/20 09:59:06;;;;;;;9.90;6.40;;;27.00;63.30;;;;;;5034870;28;20064;-55
2022/08/20 10:01:32;;;;;;;8.27;6.20;;;27.10;63.40;;;;;;5034586;28;20112;-56
2022/08/20 10:03:58;;;;;;;6.33;5.73;;;27.30;61.60;;;;;;5034644;28;20025;-56
2022/08/20 10:06:24;;;;;;;6.10;5.53;;;27.30;60.90;;;;;;5034748;28;20383;-55
2022/08/20 10:08:50;;;;;;;5.93;4.97;;;27.40;60.10;;;;;;5034683;28;20032;-56
2022/08/20 10:11:16;;;;;;;9.53;5.87;;;27.40;59.80;;;;;;5034637;28;20083;-52
2022/08/20 10:13:42;;;;;;;6.80;6.10;;;27.50;59.70;;;;;;5034698;28;20021;-53
2022/08/20 10:16:07;;;;;;;4.27;3.80;;;27.50;59.70;;;;;;5034766;28;20082;-52
2022/08/20 10:18:34;;;;;;;6.93;3.70;;;27.60;60.60;;;;;;5034759;28;20069;-51
2022/08/20 10:21:00;;;;;;;5.03;3.70;;;27.70;59.60;;;;;;5034395;28;20029;-53
2022/08/20 10:23:26;;;;;;;4.83;3.00;;;27.80;59.10;;;;;;5033514;28;20028;-52
2022/08/20 10:25:51;;;;;;;3.97;3.30;;;27.80;56.90;;;;;;5034156;28;20034;-54
2022/08/20 10:28:17;;;;;;;3.20;2.90;;;27.90;56.10;;;;;;5034092;28;20026;-51
2022/08/20 10:30:44;;;;;;;6.57;4.87;;;27.80;54.30;;;;;;5034141;28;20067;-53
2022/08/20 10:33:10;;;;;;;11.00;6.05;;;27.80;57.00;;;;;;5034325;28;20037;-49
2022/08/20 10:35:35;;;;;;;4.85;4.35;;;27.70;58.00;;;;;;5072845;23;20041;-49
2022/08/20 10:38:01;;;;;;;5.37;4.20;;;27.80;59.10;;;;;;5033775;28;20025;-48
2022/08/20 10:40:27;;;;;;;10.17;3.37;;;27.90;59.40;;;;;;5033948;28;20026;-51
2022/08/20 10:42:52;;;;;;;4.93;3.53;;;28.00;58.30;;;;;;5034153;28;20025;-50
2022/08/20 10:45:18;;;;;;;9.17;3.63;;;28.20;57.70;;;;;;5033865;28;20384;-52
2022/08/20 10:47:44;;;;;;;3.87;3.50;;;28.20;57.70;;;;;;5033464;28;20029;-50
2022/08/20 10:50:13;;;;;;;3.67;3.03;;;28.20;56.10;;;;;;5033172;28;20375;-51
2022/08/20 10:52:39;;;;;;;4.10;2.50;;;28.10;55.80;;;;;;5033726;28;20534;-49
2022/08/20 10:55:05;;;;;;;4.80;2.83;;;28.20;69.50;;;;;;5032480;28;20021;-49
2022/08/20 10:57:32;;;;;;;3.08;2.10;;;28.30;55.00;;;;;;5032836;28;20022;-51
2022/08/20 10:59:59;;;;;;;3.50;2.00;;;28.30;56.30;;;;;;5032350;28;20025;-48
2022/08/20 11:02:26;;;;;;;3.90;3.22;;;28.50;55.80;;;;;;5033819;28;20447;-51
2022/08/20 11:04:52;;;;;;;4.18;3.00;;;28.90;69.70;;;;;;5033700;28;20056;-51
2022/08/20 11:07:25;;;;;;;3.37;3.07;;;28.70;54.70;;;;;;5033465;28;20472;-53
2022/08/20 11:09:50;;;;;;;4.78;3.05;;;28.80;55.10;;;;;;5033238;28;20305;-51
2022/08/20 11:12:18;;;;;;;2.30;2.10;;;28.70;54.80;;;;;;5033733;28;20033;-52
2022/08/20 11:14:44;;;;;;;2.60;2.40;;;28.70;54.80;;;;;;5032458;28;20422;-51
2022/08/20 11:17:11;;;;;;;9.65;6.05;;;28.80;54.50;;;;;;5032197;28;20102;-54
2022/08/20 11:19:43;;;;;;;6.75;4.88;;;28.90;53.70;;;;;;5032060;28;20033;-56
2022/08/20 11:22:10;;;;;;;2.67;2.42;;;29.10;51.90;;;;;;5031357;28;20119;-57
2022/08/20 11:24:36;;;;;;;;;;;29.00;54.10;;;;;;5033680;28;20022;-58
2022/08/20 11:27:04;;;;;;;3.72;2.67;;;29.10;54.10;;;;;;5033219;28;19916;-56
2022/08/20 11:29:30;;;;;;;3.45;2.65;;;29.30;53.40;;;;;;5032395;28;20033;-58
2022/08/20 11:31:56;;;;;;;2.73;2.10;;;29.40;52.30;;;;;;5032791;28;20018;-58
2022/08/20 11:34:21;;;;;;;2.87;2.27;;;29.40;53.20;;;;;;5032730;28;20096;-58
2022/08/20 11:36:47;;;;;;;4.03;2.43;;;29.60;54.10;;;;;;5032548;28;20384;-55
2022/08/20 11:39:13;;;;;;;3.10;1.60;;;29.60;53.30;;;;;;5032785;28;20026;-57
2022/08/20 11:41:39;;;;;;;4.80;2.10;;;29.80;53.00;;;;;;5032156;28;20036;-57
2022/08/20 11:44:05;;;;;;;2.10;1.70;;;29.80;50.70;;;;;;5032886;28;20025;-57
2022/08/20 11:46:31;;;;;;;2.47;1.73;;;29.90;49.90;;;;;;5033122;28;20037;-57
2022/08/20 11:48:58;;;;;;;2.13;1.90;;;29.90;51.50;;;;;;5032526;28;20051;-58
2022/08/20 11:51:23;;;;;;;1.58;1.42;;;30.10;49.70;;;;;;5032287;28;20021;-58
2022/08/20 11:53:49;;;;;;;3.93;2.13;;;30.10;50.20;;;;;;5033199;28;20628;-56
2022/08/20 11:56:16;;;;;;;2.73;1.60;;;30.20;51.20;;;;;;5032424;28;20025;-56
2022/08/20 11:58:42;;;;;;;4.60;2.00;;;30.20;50.40;;;;;;5032459;28;20029;-56
2022/08/20 12:01:08;;;;;;;4.55;2.10;;;30.20;49.00;;;;;;5032426;28;20025;-57
2022/08/20 12:03:34;;;;;;;4.53;1.88;;;30.10;49.20;;;;;;5032461;28;20033;-58
2022/08/20 12:06:00;;;;;;;3.08;1.60;;;30.10;48.50;;;;;;5030035;28;20034;-58
2022/08/20 12:08:28;;;;;;;5.20;2.03;;;30.10;49.40;;;;;;5032658;28;20017;-58
2022/08/20 12:10:58;;;;;;;1.40;1.30;;;30.20;48.30;;;;;;5032277;28;20049;-57
2022/08/20 12:13:26;;;;;;;2.03;1.70;;;30.20;47.60;;;;;;5032674;28;20029;-58
2022/08/20 12:15:53;;;;;;;2.75;1.65;;;30.30;48.30;;;;;;5032159;28;20022;-57
2022/08/20 12:18:19;;;;;;;2.33;1.63;;;30.40;48.80;;;;;;5032050;28;20119;-58
2022/08/20 12:20:45;;;;;;;5.87;2.00;;;30.50;47.50;;;;;;5032091;28;20156;-58
2022/08/20 12:23:10;;;;;;;2.17;1.47;;;30.50;48.10;;;;;;5030553;28;20770;-57
2022/08/20 12:25:36;;;;;;;2.07;1.87;;;30.50;49.40;;;;;;5031825;28;20040;-56
2022/08/20 12:28:03;;;;;;;1.73;1.50;;;30.60;47.90;;;;;;5032087;28;20029;-57
2022/08/20 12:30:30;;;;;;;3.28;1.80;;;30.70;48.70;;;;;;5031948;28;20071;-57
2022/08/20 12:32:57;;;;;;;1.98;1.38;;;30.70;47.90;;;;;;5031767;28;20487;-58
2022/08/20 12:35:23;;;;;;;2.17;1.50;;;30.70;48.00;;;;;;5031873;28;20108;-58
2022/08/20 12:37:49;;;;;;;3.45;1.33;;;30.70;48.40;;;;;;5031796;28;20033;-58
2022/08/20 12:40:26;;;;;;;2.67;1.25;;;30.80;48.60;;;;;;5030647;28;21500;-58
2022/08/20 12:42:53;;;;;;;5.70;1.80;;;31.00;47.30;;;;;;5031919;28;20033;-57
2022/08/20 12:45:19;;;;;;;;;;;31.00;48.00;;;;;;5032310;28;20757;-56
2022/08/20 12:47:47;;;;;;;3.03;1.70;;;30.90;46.10;;;;;;5030357;28;19947;-57
2022/08/20 12:50:22;;;;;;;5.57;1.50;;;30.80;46.90;;;;;;5031382;28;20021;-58
2022/08/20 12:52:48;;;;;;;2.50;1.42;;;30.80;46.90;;;;;;5031861;28;20049;-57
2022/08/20 12:55:16;;;;;;;2.60;1.60;;;30.90;46.90;;;;;;5031699;28;20035;-58
2022/08/20 12:57:43;;;;;;;2.05;1.60;;;31.00;45.30;;;;;;5030319;28;20075;-58
2022/08/20 13:00:16;;;;;;;3.42;1.30;;;31.00;44.90;;;;;;5031242;28;20480;-54